Flight Track Log - Related Links

Times and Time Zones

All times are in EDT time to prevent confusion due to time zone crossing. See the SLI2120 flight status page for this flight to view local times or setup timezone preferences in your user account.

Time Position Orientation Groundspeed Altitude Reporting Facility
EDT Latitude Longitude Course Direction KTS MPH feet Rate Location/Type
Tue 11:06:00 AM 22.6890 -105.3926 319° Northwest  Level Estimated
Tue 11:07:00 AM 22.7524 -105.4547 318° Northwest  Level Estimated
Tue 11:08:00 AM 22.8157 -105.5170 318° Northwest  Level Estimated
Tue 11:09:00 AM 22.8790 -105.5793 318° Northwest  Level Estimated
Tue 11:10:00 AM 22.9423 -105.6416 318° Northwest  Level Estimated
Tue 11:11:00 AM 23.0055 -105.7041 318° Northwest  Level Estimated
Tue 11:12:00 AM 23.0687 -105.7665 318° Northwest  Level Estimated
Tue 11:13:00 AM 23.1319 -105.8291 318° Northwest  Level Estimated
Tue 11:14:00 AM 23.1951 -105.8916 318° Northwest  Level Estimated
Tue 11:15:00 AM 23.2582 -105.9543 318° Northwest  Level Estimated
Tue 11:16:00 AM 23.3214 -106.0170 318° Northwest  Level Estimated
Tue 11:17:00 AM 23.3845 -106.0798 318° Northwest  Level Estimated
Tue 11:18:00 AM 23.4475 -106.1426 318° Northwest  Level Estimated
Tue 11:19:00 AM 23.5106 -106.2055 318° Northwest  Level Estimated
Tue 11:20:00 AM 23.5736 -106.2684 318° Northwest  Level Estimated
Tue 11:21:00 AM 23.6366 -106.3315 318° Northwest  Level Estimated
Tue 11:22:00 AM 23.6995 -106.3945 317° Northwest  Level Estimated
Tue 11:23:00 AM 23.7625 -106.4577 317° Northwest  Level Estimated
Tue 11:24:00 AM 23.8254 -106.5209 317° Northwest  Level Estimated
Tue 11:25:00 AM 23.8883 -106.5841 317° Northwest  Level Estimated
Tue 11:26:00 AM 23.9512 -106.6474 317° Northwest  Level Estimated
Tue 11:27:00 AM 24.0140 -106.7108 317° Northwest  Level Estimated
Tue 11:28:00 AM 24.0768 -106.7742 317° Northwest  Level Estimated
Tue 11:29:00 AM 24.1396 -106.8377 317° Northwest  Level Estimated
Tue 11:30:00 AM 24.2024 -106.9013 317° Northwest  Level Estimated
Tue 11:31:00 AM 24.2651 -106.9649 317° Northwest  Level Estimated
Tue 11:32:00 AM 24.3278 -107.0286 317° Northwest  Level Estimated
Tue 11:33:00 AM 24.3905 -107.0924 317° Northwest  Level Estimated
Tue 11:34:00 AM 24.4531 -107.1562 317° Northwest  Level Estimated
Tue 11:35:00 AM 24.5158 -107.2201 317° Northwest  Level Estimated
Tue 11:36:00 AM 24.5784 -107.2840 317° Northwest  Level Estimated
Tue 11:37:00 AM 24.6409 -107.3480 317° Northwest  Level Estimated
Tue 11:38:00 AM 24.7035 -107.4121 317° Northwest  Level Estimated
Tue 11:39:00 AM 24.7645 -107.4747 317° Northwest  Level Estimated
Tue 11:40:00 AM 24.7645 -107.4747 138° Southeast  Level Estimated
Tue 11:41:00 AM 24.7645 -107.4747 138° Southeast  Level Estimated
Tue 11:42:00 AM 24.7645 -107.4747 138° Southeast  Level Estimated
Tue 11:43:00 AM 24.7645 -107.4747 138° Southeast  Level Estimated
Tue 11:44:00 AM 24.7645 -107.4747 138° Southeast  Level Estimated
Tue 11:45:00 AM 24.7645 -107.4747 138° Southeast  Level Estimated
Tue 11:46:00 AM 24.7645 -107.4747 138° Southeast  Level Estimated
Tue 11:47:00 AM 24.7645 -107.4747 138° Southeast  Level Estimated
Tue 11:48:00 AM 24.7645 -107.4747 138° Southeast  Level Estimated
Tue 11:49:00 AM 24.7645 -107.4747 138° Southeast  Level Estimated
Tue 11:50:00 AM 24.7645 -107.4747 138° Southeast  Level Estimated

Login

Don't have an account? Register now (free) for customized features, flight alerts, and more!